createdAt,value
2024-02-08T00:02:42.935Z,95126.00
2024-02-08T00:05:29.032Z,95132.63
2024-02-08T00:08:15.178Z,95132.97
2024-02-08T00:11:01.223Z,95135.97
2024-02-08T00:13:47.215Z,95148.19
2024-02-08T00:16:33.477Z,95138.81
2024-02-08T00:19:19.571Z,95133.88
2024-02-08T00:22:06.056Z,95151.69
2024-02-08T00:24:55.069Z,95130.22
2024-02-08T00:27:41.008Z,95121.78
2024-02-08T00:30:27.185Z,95110.00
2024-02-08T00:33:13.760Z,95131.63
2024-02-08T00:35:59.615Z,95130.97
2024-02-08T00:38:45.657Z,95123.00
2024-02-08T00:41:34.790Z,95117.88
2024-02-08T00:44:27.340Z,95133.09
2024-02-08T00:47:13.528Z,95128.16
2024-02-08T00:50:00.865Z,95130.19
2024-02-08T00:52:47.031Z,95126.06
2024-02-08T00:55:37.180Z,95132.06
2024-02-08T00:58:23.435Z,95133.03
2024-02-08T01:01:10.618Z,95122.88
2024-02-08T01:03:57.255Z,95113.66
2024-02-08T01:06:43.331Z,95112.69
2024-02-08T01:09:29.720Z,95120.78
2024-02-08T01:12:16.034Z,95117.13
2024-02-08T01:15:03.764Z,95110.75
2024-02-08T01:17:53.267Z,95103.91
2024-02-08T01:20:39.443Z,95114.69
2024-02-08T01:23:27.348Z,95098.03
2024-02-08T01:26:13.397Z,95095.44
2024-02-08T01:28:59.764Z,95092.25
2024-02-08T01:31:45.856Z,95092.91
2024-02-08T01:34:32.180Z,95097.00
2024-02-08T01:37:18.790Z,95082.84
2024-02-08T01:40:17.802Z,95082.63
2024-02-08T01:43:06.297Z,95080.41
2024-02-08T01:45:52.094Z,95077.72
2024-02-08T01:48:46.400Z,95078.66
2024-02-08T01:51:32.849Z,95078.16
2024-02-08T01:54:20.701Z,95069.91
2024-02-08T01:57:09.455Z,95071.63
2024-02-08T01:59:55.736Z,95063.34
2024-02-08T02:02:42.528Z,95060.78
2024-02-08T02:05:30.016Z,95057.59
2024-02-08T02:08:20.072Z,95058.50
2024-02-08T02:11:22.895Z,95053.06
2024-02-08T02:14:11.096Z,95049.06
2024-02-08T02:17:20.266Z,95036.94
2024-02-08T02:20:09.637Z,95035.09
2024-02-08T02:22:55.895Z,95030.31
2024-02-08T02:25:42.389Z,95024.09
2024-02-08T02:28:30.434Z,95018.53
2024-02-08T02:31:18.231Z,95032.00
2024-02-08T02:34:07.376Z,95025.81
2024-02-08T02:36:59.825Z,95030.81
2024-02-08T02:39:46.673Z,95026.53
2024-02-08T02:42:33.000Z,95026.22
2024-02-08T02:45:31.139Z,95031.00
2024-02-08T02:48:18.857Z,95031.13
2024-02-08T02:51:05.601Z,95030.03
2024-02-08T02:53:51.402Z,95027.16
2024-02-08T02:56:37.542Z,95023.47
2024-02-08T02:59:27.925Z,95026.69
2024-02-08T03:02:14.251Z,95031.06
2024-02-08T03:05:00.416Z,95017.53
2024-02-08T03:07:47.409Z,95009.28
2024-02-08T03:10:36.066Z,95011.00
2024-02-08T03:13:22.104Z,95017.97
2024-02-08T03:16:11.431Z,95009.41
2024-02-08T03:18:59.074Z,95016.00
2024-02-08T03:21:46.540Z,95007.25
2024-02-08T03:24:37.358Z,95007.84
2024-02-08T03:27:26.048Z,95004.84
2024-02-08T03:30:32.308Z,94997.97
2024-02-08T03:33:18.390Z,95001.31
2024-02-08T03:36:08.260Z,95013.66
2024-02-08T03:38:54.582Z,95008.50
2024-02-08T03:41:42.265Z,95011.19
2024-02-08T03:44:32.230Z,95008.50
2024-02-08T03:47:18.552Z,95011.78
2024-02-08T03:50:05.444Z,95008.09
2024-02-08T03:52:54.757Z,95001.75
2024-02-08T03:55:45.338Z,95004.91
2024-02-08T03:58:32.229Z,95008.25
2024-02-08T04:01:22.728Z,95004.97
2024-02-08T04:04:19.514Z,94986.03
2024-02-08T04:07:35.299Z,94977.09
2024-02-08T04:10:35.526Z,95002.16
2024-02-08T04:13:41.185Z,95000.56
2024-02-08T04:16:45.870Z,95007.06
2024-02-08T04:19:51.413Z,95020.19
2024-02-08T04:22:58.957Z,95022.59
2024-02-08T04:26:07.347Z,95009.56
2024-02-08T04:29:14.862Z,95020.91
2024-02-08T04:32:20.280Z,95001.38
2024-02-08T04:35:26.456Z,95005.34
2024-02-08T04:38:33.084Z,94987.25
2024-02-08T04:41:37.814Z,94993.22
2024-02-08T04:44:42.291Z,95003.97
2024-02-08T04:47:46.804Z,95009.97
2024-02-08T04:50:53.052Z,94999.81
2024-02-08T04:53:40.914Z,94989.84
2024-02-08T04:56:29.893Z,95002.59
2024-02-08T04:59:22.156Z,95004.59
2024-02-08T05:02:10.797Z,95011.28
2024-02-08T05:04:56.817Z,94994.16
2024-02-08T05:07:44.018Z,95003.38
2024-02-08T05:10:30.280Z,95004.78
2024-02-08T05:13:19.220Z,95001.00
2024-02-08T05:16:06.607Z,94998.00
2024-02-08T05:18:54.766Z,95001.00
2024-02-08T05:21:44.695Z,95007.47
2024-02-08T05:24:32.594Z,95013.97
2024-02-08T05:27:19.356Z,95023.13
2024-02-08T05:30:06.160Z,95017.03
2024-02-08T05:32:53.353Z,95018.94
2024-02-08T05:35:40.769Z,95007.78
2024-02-08T05:38:27.361Z,94997.63
2024-02-08T05:41:18.626Z,95008.88
2024-02-08T05:44:08.603Z,95013.75
2024-02-08T05:46:55.660Z,95007.97
2024-02-08T05:49:50.994Z,95012.56
2024-02-08T05:52:40.036Z,95014.34
2024-02-08T05:55:26.100Z,95016.94
2024-02-08T05:58:18.016Z,95020.13
2024-02-08T06:01:07.037Z,95020.94
2024-02-08T06:03:57.501Z,95030.25
2024-02-08T06:06:54.086Z,95042.53
2024-02-08T06:09:47.364Z,95039.84
2024-02-08T06:12:47.655Z,95041.44
2024-02-08T06:15:36.151Z,95036.56
2024-02-08T06:18:26.927Z,95044.00
2024-02-08T06:21:25.957Z,95047.22
2024-02-08T06:24:25.360Z,95049.22
2024-02-08T06:27:24.590Z,95057.97
2024-02-08T06:30:20.433Z,95061.16
2024-02-08T06:33:11.832Z,95064.13
2024-02-08T06:35:58.537Z,95054.75
2024-02-08T06:38:55.069Z,95060.94
2024-02-08T06:42:08.815Z,95062.75
2024-02-08T06:45:15.885Z,95069.72
2024-02-08T06:48:02.529Z,95070.53
2024-02-08T06:51:06.809Z,95066.53
2024-02-08T06:54:13.933Z,95069.22
2024-02-08T06:57:18.651Z,95079.09
2024-02-08T07:00:26.752Z,95075.50
2024-02-08T07:03:33.506Z,95063.75
2024-02-08T07:06:46.075Z,95074.91
2024-02-08T07:09:53.278Z,95072.50
2024-02-08T07:12:58.283Z,95080.66
2024-02-08T07:16:04.149Z,95068.94
2024-02-08T07:19:09.183Z,95070.50
2024-02-08T07:22:13.969Z,95079.47
2024-02-08T07:25:18.748Z,95083.06
2024-02-08T07:28:24.705Z,95076.88
2024-02-08T07:31:30.349Z,95079.66
2024-02-08T07:34:35.277Z,95080.66
2024-02-08T07:37:27.001Z,95068.69
2024-02-08T07:40:24.666Z,95069.19
2024-02-08T07:43:17.293Z,95064.66
2024-02-08T07:46:07.082Z,95056.50
2024-02-08T07:49:00.017Z,95055.28
2024-02-08T07:51:53.311Z,95061.81
2024-02-08T07:54:43.576Z,95055.03
2024-02-08T07:57:59.306Z,95061.41
2024-02-08T08:00:45.665Z,95051.41
2024-02-08T08:03:36.738Z,95049.56
2024-02-08T08:06:24.295Z,95040.75
2024-02-08T08:09:23.287Z,95042.69
2024-02-08T08:12:09.461Z,95037.19
2024-02-08T08:15:14.802Z,95047.41
2024-02-08T08:18:02.256Z,95037.81
2024-02-08T08:20:57.753Z,95043.53
2024-02-08T08:24:02.183Z,95058.03
2024-02-08T08:26:50.032Z,95036.66
2024-02-08T08:29:44.424Z,95056.06
2024-02-08T08:32:31.253Z,95047.88
2024-02-08T08:35:40.391Z,95033.91
2024-02-08T08:38:35.725Z,95042.53
2024-02-08T08:41:25.762Z,95042.88
2024-02-08T08:44:11.815Z,95045.28
2024-02-08T08:47:02.193Z,95053.09
2024-02-08T08:49:52.471Z,95058.03
2024-02-08T08:52:49.714Z,95060.72
2024-02-08T08:55:49.560Z,95063.63
2024-02-08T08:58:42.546Z,95053.16
2024-02-08T09:01:31.418Z,95057.44
2024-02-08T09:04:27.786Z,95056.03
2024-02-08T09:07:15.503Z,95047.94
2024-02-08T09:10:05.496Z,95063.69
2024-02-08T09:13:01.629Z,95062.06
2024-02-08T09:15:58.507Z,95056.66
2024-02-08T09:19:16.991Z,95060.41
2024-02-08T09:22:08.007Z,95054.97
2024-02-08T09:24:54.065Z,95054.72
2024-02-08T09:27:40.140Z,95053.06
2024-02-08T09:30:39.227Z,95045.34
2024-02-08T09:33:31.586Z,95040.00
2024-02-08T09:36:18.981Z,95049.16
2024-02-08T09:39:16.180Z,95029.47
2024-02-08T09:42:09.348Z,95037.00
2024-02-08T09:45:21.364Z,95031.97
2024-02-08T09:48:12.562Z,95030.25
2024-02-08T09:51:01.819Z,95025.31
2024-02-08T09:53:53.928Z,95027.84
2024-02-08T09:56:40.756Z,95024.88
2024-02-08T09:59:49.604Z,95026.13
2024-02-08T10:02:38.444Z,95024.81
2024-02-08T10:05:50.325Z,95022.56
2024-02-08T10:08:39.808Z,95023.34
2024-02-08T10:11:25.977Z,95020.41
2024-02-08T10:14:33.973Z,95025.25
2024-02-08T10:17:26.220Z,95014.63
2024-02-08T10:20:12.996Z,95008.41
2024-02-08T10:23:10.658Z,94997.63
2024-02-08T10:26:17.934Z,94992.63
2024-02-08T10:29:08.859Z,94988.31
2024-02-08T10:31:55.556Z,94981.53
2024-02-08T10:34:44.951Z,94968.38
2024-02-08T10:37:50.799Z,94972.78
2024-02-08T10:40:37.065Z,94965.56
2024-02-08T10:43:26.906Z,94965.72
2024-02-08T10:46:18.337Z,94948.28
2024-02-08T10:49:10.668Z,94963.25
2024-02-08T10:52:02.621Z,94967.91
2024-02-08T10:54:53.901Z,94963.75
2024-02-08T10:57:41.580Z,94968.94
2024-02-08T11:00:41.949Z,94953.81
2024-02-08T11:03:39.093Z,94957.47
2024-02-08T11:06:30.750Z,94945.41
2024-02-08T11:09:19.806Z,94947.81
2024-02-08T11:12:18.322Z,94940.41
2024-02-08T11:15:21.229Z,94946.97
2024-02-08T11:18:12.360Z,94944.44
2024-02-08T11:21:05.822Z,94929.06
2024-02-08T11:23:52.787Z,94930.38
2024-02-08T11:26:50.552Z,94925.59
2024-02-08T11:29:47.119Z,94928.16
2024-02-08T11:32:35.826Z,94923.94
2024-02-08T11:35:24.405Z,94926.50
2024-02-08T11:38:17.462Z,94907.22
2024-02-08T11:41:11.151Z,94905.03
2024-02-08T11:44:04.247Z,94896.63
2024-02-08T11:46:59.195Z,94893.41
2024-02-08T11:50:02.820Z,94898.53
2024-02-08T11:52:56.468Z,94897.63
2024-02-08T11:55:46.474Z,94887.16
2024-02-08T11:58:36.979Z,94873.88
2024-02-08T12:01:27.289Z,94874.88
2024-02-08T12:04:17.646Z,94875.75
2024-02-08T12:07:05.927Z,94875.09
2024-02-08T12:10:01.782Z,94871.78
2024-02-08T12:12:54.483Z,94892.00
2024-02-08T12:15:46.276Z,94868.84
2024-02-08T12:18:32.336Z,94857.50
2024-02-08T12:21:19.664Z,94865.09
2024-02-08T12:24:06.062Z,94847.06
2024-02-08T12:26:56.352Z,94855.66
2024-02-08T12:29:47.304Z,94853.22
2024-02-08T12:32:34.850Z,94844.44
2024-02-08T12:35:22.607Z,94838.44
2024-02-08T12:38:10.350Z,94837.09
2024-02-08T12:40:58.356Z,94845.50
2024-02-08T12:43:48.019Z,94836.03
2024-02-08T12:46:34.211Z,94833.53
2024-02-08T12:49:20.467Z,94830.63
2024-02-08T12:52:11.320Z,94833.19
2024-02-08T12:54:57.706Z,94827.09
2024-02-08T12:57:43.830Z,94834.72
2024-02-08T13:00:36.997Z,94826.31
2024-02-08T13:03:25.749Z,94835.44
2024-02-08T13:06:15.541Z,94822.00
2024-02-08T13:09:27.215Z,94833.50
2024-02-08T13:12:23.130Z,94826.38
2024-02-08T13:15:11.259Z,94816.06
2024-02-08T13:17:58.311Z,94826.97
2024-02-08T13:20:45.459Z,94827.84
2024-02-08T13:23:34.411Z,94838.75
2024-02-08T13:26:29.533Z,94827.09
2024-02-08T13:29:19.043Z,94837.72
2024-02-08T13:32:05.296Z,94842.75
2024-02-08T13:34:52.589Z,94842.75
2024-02-08T13:37:38.936Z,94833.09
2024-02-08T13:40:26.331Z,94839.66
2024-02-08T13:43:15.380Z,94842.88
2024-02-08T13:46:02.637Z,94839.41
2024-02-08T13:48:50.537Z,94834.63
2024-02-08T13:51:36.492Z,94837.34
2024-02-08T13:54:22.495Z,94829.00
2024-02-08T13:57:15.443Z,94829.72
2024-02-08T14:00:05.472Z,94854.91
2024-02-08T14:02:58.830Z,94849.16
2024-02-08T14:05:51.815Z,94851.00
2024-02-08T14:08:44.320Z,94856.38
2024-02-08T14:11:40.231Z,94845.44
2024-02-08T14:14:41.396Z,94854.59
2024-02-08T14:17:35.751Z,94853.66
2024-02-08T14:20:32.606Z,94865.44
2024-02-08T14:23:31.365Z,94866.19
2024-02-08T14:26:17.809Z,94865.53
2024-02-08T14:29:06.734Z,94861.56
2024-02-08T14:31:54.283Z,94876.06
2024-02-08T14:34:41.523Z,94865.44
2024-02-08T14:37:29.762Z,94864.94
2024-02-08T14:40:16.708Z,94874.50
2024-02-08T14:43:07.306Z,94857.09
2024-02-08T14:45:54.665Z,94877.22
2024-02-08T14:48:40.383Z,94858.13
2024-02-08T14:51:26.194Z,94856.00
2024-02-08T14:54:14.108Z,94856.13
2024-02-08T14:57:06.922Z,94853.84
2024-02-08T15:00:06.965Z,94855.56
2024-02-08T15:02:57.078Z,94853.66
2024-02-08T15:05:50.067Z,94861.34
2024-02-08T15:08:56.264Z,94855.69
2024-02-08T15:11:59.180Z,94860.94
2024-02-08T15:14:46.917Z,94867.41
2024-02-08T15:17:44.267Z,94865.91
2024-02-08T15:20:44.875Z,94876.03
2024-02-08T15:23:35.397Z,94891.28
2024-02-08T15:26:26.665Z,94875.94
2024-02-08T15:29:32.011Z,94866.72
2024-02-08T15:32:19.784Z,94885.25
2024-02-08T15:35:06.597Z,94878.50
2024-02-08T15:38:11.251Z,94874.38
2024-02-08T15:41:08.148Z,94886.28
2024-02-08T15:43:54.958Z,94886.91
2024-02-08T15:46:42.830Z,94885.94
2024-02-08T15:49:30.453Z,94887.31
2024-02-08T15:52:17.238Z,94880.22
2024-02-08T15:55:17.698Z,94883.13
2024-02-08T15:58:27.637Z,94915.97
2024-02-08T16:01:22.044Z,94907.25
2024-02-08T16:04:27.753Z,94917.47
2024-02-08T16:07:18.737Z,94916.38
2024-02-08T16:10:21.128Z,94917.78
2024-02-08T16:13:08.003Z,94908.38
2024-02-08T16:15:58.289Z,94916.31
2024-02-08T16:18:51.082Z,94919.25
2024-02-08T16:21:36.958Z,94920.84
2024-02-08T16:24:23.153Z,94921.19
2024-02-08T16:27:14.426Z,94920.63
2024-02-08T16:30:09.250Z,94923.69
2024-02-08T16:33:09.677Z,94927.44
2024-02-08T16:36:10.409Z,94927.88
2024-02-08T16:39:15.889Z,94925.84
2024-02-08T16:42:37.837Z,94923.59
2024-02-08T16:45:37.428Z,94945.78
2024-02-08T16:48:34.732Z,94939.88
2024-02-08T16:51:28.058Z,94946.91
2024-02-08T16:54:33.373Z,94940.00
2024-02-08T16:57:22.777Z,94937.16
2024-02-08T17:00:28.260Z,94953.25
2024-02-08T17:03:33.684Z,94946.91
2024-02-08T17:06:35.404Z,94960.94
2024-02-08T17:09:25.942Z,94947.59
2024-02-08T17:12:29.485Z,94952.94
2024-02-08T17:15:51.049Z,94970.91
2024-02-08T17:18:58.341Z,94963.81
2024-02-08T17:21:53.591Z,94964.59
2024-02-08T17:24:54.229Z,94960.84
2024-02-08T17:27:50.667Z,94953.72
2024-02-08T17:31:03.418Z,94960.84
2024-02-08T17:33:51.312Z,94959.84
2024-02-08T17:36:45.485Z,94970.03
2024-02-08T17:39:44.227Z,94962.91
2024-02-08T17:42:31.926Z,94978.06
2024-02-08T17:45:21.470Z,94975.22
2024-02-08T17:48:13.181Z,94981.47
2024-02-08T17:51:08.726Z,94976.59
2024-02-08T17:53:54.885Z,94980.47
2024-02-08T17:56:46.998Z,94979.53
2024-02-08T17:59:33.024Z,94975.94
2024-02-08T18:02:22.829Z,94962.13
2024-02-08T18:05:16.446Z,94964.16
2024-02-08T18:08:09.021Z,94959.66
2024-02-08T18:10:56.255Z,94956.59
2024-02-08T18:13:47.398Z,94949.91
2024-02-08T18:16:37.266Z,94965.19
2024-02-08T18:19:33.943Z,94972.19
2024-02-08T18:22:30.215Z,94973.78
2024-02-08T18:25:30.414Z,94967.09
2024-02-08T18:28:19.857Z,94964.63
2024-02-08T18:31:09.847Z,94965.75
2024-02-08T18:33:58.553Z,94954.91
2024-02-08T18:36:46.379Z,94958.75
2024-02-08T18:39:34.178Z,94966.44
2024-02-08T18:42:23.771Z,94959.41
2024-02-08T18:45:17.975Z,94949.91
2024-02-08T18:48:05.839Z,94948.66
2024-02-08T18:50:53.629Z,94954.09
2024-02-08T18:53:39.812Z,94962.38
2024-02-08T18:56:27.226Z,94952.41
2024-02-08T18:59:13.841Z,94958.28
2024-02-08T19:02:09.972Z,94971.84
2024-02-08T19:04:59.909Z,94983.84
2024-02-08T19:07:46.972Z,94980.56
2024-02-08T19:10:37.829Z,94977.53
2024-02-08T19:13:30.172Z,94972.75
2024-02-08T19:16:17.749Z,94971.84
2024-02-08T19:19:04.684Z,94987.47
2024-02-08T19:21:52.123Z,94983.72
2024-02-08T19:24:39.862Z,94996.97
2024-02-08T19:27:27.532Z,94991.06
2024-02-08T19:30:14.404Z,95004.19
2024-02-08T19:33:00.624Z,94996.94
2024-02-08T19:35:51.402Z,94995.34
2024-02-08T19:38:37.447Z,94990.78
2024-02-08T19:41:31.428Z,94987.94
2024-02-08T19:44:27.810Z,94988.28
2024-02-08T19:47:15.326Z,94990.53
2024-02-08T19:50:08.252Z,94997.44
2024-02-08T19:52:55.386Z,95008.63
2024-02-08T19:55:42.842Z,95013.25
2024-02-08T19:58:30.050Z,95007.69
2024-02-08T20:01:24.319Z,95011.53
2024-02-08T20:04:15.109Z,95022.63
2024-02-08T20:07:06.227Z,95024.91
2024-02-08T20:09:56.054Z,95023.06
2024-02-08T20:12:49.775Z,95025.31
2024-02-08T20:15:38.337Z,95029.06
2024-02-08T20:18:26.298Z,95022.69
2024-02-08T20:21:14.154Z,95020.50
2024-02-08T20:24:04.398Z,95020.06
2024-02-08T20:26:52.016Z,95020.72
2024-02-08T20:29:38.548Z,95011.66
2024-02-08T20:32:30.052Z,95012.78
2024-02-08T20:35:16.669Z,95018.22
2024-02-08T20:38:07.246Z,95012.78
2024-02-08T20:40:57.435Z,95021.41
2024-02-08T20:43:49.970Z,95016.88
2024-02-08T20:46:40.945Z,95018.88
2024-02-08T20:49:35.073Z,95021.25
2024-02-08T20:52:23.302Z,95012.28
2024-02-08T20:55:18.431Z,95017.69
2024-02-08T20:58:12.376Z,95005.00
2024-02-08T21:01:00.598Z,95009.34
2024-02-08T21:03:47.198Z,95000.50
2024-02-08T21:06:35.353Z,95009.25
2024-02-08T21:09:22.587Z,95000.84
2024-02-08T21:12:11.569Z,95007.06
2024-02-08T21:15:00.186Z,95015.06
2024-02-08T21:17:47.184Z,95007.13
2024-02-08T21:20:36.699Z,95012.75
2024-02-08T21:23:23.344Z,95016.75
2024-02-08T21:26:10.492Z,95017.44
2024-02-08T21:28:56.468Z,95014.44
2024-02-08T21:31:48.567Z,95006.00
2024-02-08T21:34:37.468Z,95007.44
2024-02-08T21:37:24.763Z,95007.78
2024-02-08T21:40:14.514Z,95005.72
2024-02-08T21:43:01.260Z,94998.84
2024-02-08T21:45:48.488Z,94994.13
2024-02-08T21:48:38.797Z,94998.72
2024-02-08T21:51:27.299Z,95000.19
2024-02-08T21:54:13.643Z,95003.22
2024-02-08T21:57:05.287Z,95006.22
2024-02-08T21:59:58.921Z,95000.22
2024-02-08T22:02:47.531Z,95006.09
2024-02-08T22:05:33.877Z,94998.63
2024-02-08T22:08:22.784Z,94993.41
2024-02-08T22:11:09.985Z,94992.47
2024-02-08T22:13:58.075Z,94998.81
2024-02-08T22:16:45.325Z,94995.50
2024-02-08T22:19:39.689Z,94997.44
2024-02-08T22:22:44.963Z,94976.78
2024-02-08T22:25:44.514Z,94991.09
2024-02-08T22:28:34.629Z,95007.31
2024-02-08T22:31:28.060Z,95006.81
2024-02-08T22:34:24.630Z,95007.84
2024-02-08T22:37:11.023Z,94995.56
2024-02-08T22:39:57.275Z,95001.31
2024-02-08T22:42:43.194Z,95012.31
2024-02-08T22:45:30.957Z,94994.66
2024-02-08T22:48:17.130Z,95000.75
2024-02-08T22:51:07.511Z,94997.72
2024-02-08T22:53:55.599Z,94997.72
2024-02-08T22:56:44.818Z,95002.84
2024-02-08T22:59:45.716Z,95007.50
2024-02-08T23:02:36.562Z,95003.84
2024-02-08T23:05:32.859Z,95006.22
2024-02-08T23:08:19.007Z,95008.63
2024-02-08T23:11:05.263Z,95010.53
2024-02-08T23:13:52.640Z,95015.28
2024-02-08T23:16:41.896Z,95010.22
2024-02-08T23:19:33.832Z,95014.97
2024-02-08T23:22:22.850Z,95006.25
2024-02-08T23:25:10.249Z,95008.28
2024-02-08T23:27:57.164Z,95010.06
2024-02-08T23:30:45.691Z,95013.41
2024-02-08T23:33:32.501Z,95002.13
2024-02-08T23:36:21.005Z,94989.41
2024-02-08T23:39:08.454Z,95009.75
2024-02-08T23:41:57.595Z,94999.59
2024-02-08T23:44:43.739Z,95008.19
2024-02-08T23:47:29.862Z,95007.72
2024-02-08T23:50:15.826Z,94990.06
2024-02-08T23:53:05.388Z,95001.34
2024-02-08T23:55:52.551Z,94995.47
2024-02-08T23:58:42.133Z,94990.72
